Time;durP1;ratioP1;P1;durP2;ratioP2;P2;SDS_P1;SDS_P2;PMS_P1;PMS_P2;Temp;Humidity;BMP_temperature;BMP_pressure;BME280_temperature;BME280_humidity;BME280_pressure;Samples;Min_cycle;Max_cycle;Signal;HPM_P1;HPM_P2
2023/09/18 00:00:57;;;;;;;6.22;2.35;;;;;;;;;;10380348;22;20013;-72
2023/09/18 00:04:58;;;;;;;4.57;2.30;;;;;;;;;;10382317;22;20110;-72
2023/09/18 00:08:59;;;;;;;5.45;2.33;;;;;;;;;;10380787;22;20853;-72
2023/09/18 00:12:59;;;;;;;6.13;2.17;;;;;;;;;;10378497;22;20667;-71
2023/09/18 00:17:00;;;;;;;4.20;2.10;;;;;;;;;;10378919;22;20011;-72
2023/09/18 00:21:00;;;;;;;6.85;2.50;;;;;;;;;;10383567;22;19999;-72
2023/09/18 00:25:02;;;;;;;5.07;2.33;;;;;;;;;;10383302;22;20007;-72
2023/09/18 00:29:02;;;;;;;6.38;2.50;;;;;;;;;;10384543;22;20010;-72
2023/09/18 00:33:02;;;;;;;4.18;2.03;;;;;;;;;;10381356;22;20015;-72
2023/09/18 00:37:02;;;;;;;6.73;2.50;;;;;;;;;;10357570;22;20031;-72
2023/09/18 00:41:03;;;;;;;4.40;2.10;;;;;;;;;;10384697;22;20221;-72
2023/09/18 00:45:03;;;;;;;5.07;2.00;;;;;;;;;;10385798;22;20011;-72
2023/09/18 00:49:03;;;;;;;4.30;2.27;;;;;;;;;;10364596;22;20015;-72
2023/09/18 00:53:04;;;;;;;4.60;2.30;;;;;;;;;;10383682;22;20221;-72
2023/09/18 00:57:04;;;;;;;5.32;2.10;;;;;;;;;;10380402;22;20015;-71
2023/09/18 01:01:05;;;;;;;3.00;1.83;;;;;;;;;;10383434;22;20383;-72
2023/09/18 01:05:05;;;;;;;3.67;2.13;;;;;;;;;;10386774;22;20033;-72
2023/09/18 01:09:12;;;;;;;4.35;1.98;;;;;;;;;;10383758;22;20003;-72
2023/09/18 01:13:15;;;;;;;6.25;1.80;;;;;;;;;;10382001;22;20488;-71
2023/09/18 01:17:16;;;;;;;5.30;1.83;;;;;;;;;;10381556;22;20022;-72
2023/09/18 01:21:18;;;;;;;5.45;1.75;;;;;;;;;;10380713;22;19999;-72
2023/09/18 01:25:18;;;;;;;2.27;1.77;;;;;;;;;;10383017;22;20011;-71
2023/09/18 01:29:19;;;;;;;5.43;1.90;;;;;;;;;;10379925;22;20002;-71
2023/09/18 01:33:20;;;;;;;3.95;1.88;;;;;;;;;;10381416;22;20015;-72
2023/09/18 01:37:22;;;;;;;6.78;1.80;;;;;;;;;;10365675;22;20011;-72
2023/09/18 01:41:22;;;;;;;4.38;2.00;;;;;;;;;;10381606;22;20003;-72
2023/09/18 01:45:23;;;;;;;5.82;2.38;;;;;;;;;;10383327;22;20863;-73
2023/09/18 01:49:26;;;;;;;8.60;2.10;;;;;;;;;;10383298;22;20546;-72
2023/09/18 01:53:27;;;;;;;8.73;2.63;;;;;;;;;;10384634;22;20225;-72
2023/09/18 01:57:27;;;;;;;5.55;2.20;;;;;;;;;;10384713;22;20003;-72
2023/09/18 02:01:29;;;;;;;6.60;2.30;;;;;;;;;;10383052;22;20023;-71
2023/09/18 02:05:30;;;;;;;9.70;2.10;;;;;;;;;;10383288;22;19999;-72
2023/09/18 02:09:30;;;;;;;6.63;2.05;;;;;;;;;;10372731;22;20034;-72
2023/09/18 02:13:31;;;;;;;5.25;1.98;;;;;;;;;;10384828;22;20006;-71
2023/09/18 02:17:31;;;;;;;11.38;2.33;;;;;;;;;;10382403;22;20471;-72
2023/09/18 02:21:31;;;;;;;20.05;3.05;;;;;;;;;;10377749;22;20006;-71
2023/09/18 02:25:31;;;;;;;16.17;2.92;;;;;;;;;;10381389;22;20081;-72
2023/09/18 02:29:31;;;;;;;13.35;2.75;;;;;;;;;;10379654;22;20008;-72
2023/09/18 02:33:32;;;;;;;18.63;3.77;;;;;;;;;;10380012;22;20441;-72
2023/09/18 02:37:32;;;;;;;19.95;3.60;;;;;;;;;;10382940;22;20101;-72
2023/09/18 02:41:32;;;;;;;23.33;3.70;;;;;;;;;;10381881;22;20003;-72
2023/09/18 02:45:33;;;;;;;25.25;3.75;;;;;;;;;;10382728;22;20236;-70
2023/09/18 02:49:33;;;;;;;18.67;4.15;;;;;;;;;;10367086;22;20007;-72
2023/09/18 02:53:33;;;;;;;15.57;3.70;;;;;;;;;;10379964;22;19999;-72
2023/09/18 02:57:34;;;;;;;19.33;3.80;;;;;;;;;;10378827;22;20237;-72
2023/09/18 03:01:34;;;;;;;14.47;3.60;;;;;;;;;;10378612;22;20022;-72
2023/09/18 03:05:34;;;;;;;10.63;2.63;;;;;;;;;;10379125;22;20490;-72
2023/09/18 03:09:35;;;;;;;12.50;3.05;;;;;;;;;;10380634;22;20007;-72
2023/09/18 03:13:35;;;;;;;12.43;2.78;;;;;;;;;;10381791;22;19999;-72
2023/09/18 03:17:35;;;;;;;13.05;2.90;;;;;;;;;;10369989;22;20094;-73
2023/09/18 03:21:36;;;;;;;14.85;3.00;;;;;;;;;;10379403;22;20019;-72
2023/09/18 03:25:37;;;;;;;13.75;2.80;;;;;;;;;;10380242;22;20025;-72
2023/09/18 03:29:37;;;;;;;18.05;3.30;;;;;;;;;;10376837;22;20093;-72
2023/09/18 03:33:37;;;;;;;18.35;2.90;;;;;;;;;;10379104;22;20584;-72
2023/09/18 03:37:38;;;;;;;18.10;3.75;;;;;;;;;;10383248;22;20002;-72
2023/09/18 03:41:38;;;;;;;15.52;3.05;;;;;;;;;;10380674;22;20081;-72
2023/09/18 03:45:40;;;;;;;20.98;3.35;;;;;;;;;;10380677;22;20038;-72
2023/09/18 03:49:41;;;;;;;10.33;2.67;;;;;;;;;;10380915;22;20010;-73
2023/09/18 03:53:41;;;;;;;16.83;3.30;;;;;;;;;;10382647;22;19994;-72
2023/09/18 03:57:42;;;;;;;19.75;3.95;;;;;;;;;;10382074;22;20311;-72
2023/09/18 04:01:42;;;;;;;13.38;3.33;;;;;;;;;;10380681;22;20073;-72
2023/09/18 04:05:42;;;;;;;18.10;2.90;;;;;;;;;;10384159;22;20014;-72
2023/09/18 04:09:42;;;;;;;18.42;3.83;;;;;;;;;;10383840;22;19999;-73
2023/09/18 04:13:42;;;;;;;17.88;2.80;;;;;;;;;;10385742;22;20436;-72
2023/09/18 04:17:43;;;;;;;13.63;2.40;;;;;;;;;;10381655;22;20021;-72
2023/09/18 04:21:43;;;;;;;13.85;2.88;;;;;;;;;;10384909;22;20003;-72
2023/09/18 04:25:43;;;;;;;13.30;2.88;;;;;;;;;;10383213;22;20571;-72
2023/09/18 04:29:44;;;;;;;10.70;2.67;;;;;;;;;;10383771;22;20003;-73
2023/09/18 04:33:45;;;;;;;15.95;2.90;;;;;;;;;;10381204;22;20773;-72
2023/09/18 04:37:45;;;;;;;12.00;2.80;;;;;;;;;;10379415;22;20018;-73
2023/09/18 04:41:45;;;;;;;10.00;2.60;;;;;;;;;;10381823;22;20027;-72
2023/09/18 04:45:45;;;;;;;14.10;3.10;;;;;;;;;;10382045;22;20019;-71
2023/09/18 04:49:47;;;;;;;11.57;2.67;;;;;;;;;;10381439;22;20014;-72
2023/09/18 04:53:47;;;;;;;10.00;2.25;;;;;;;;;;10380060;22;19999;-75
2023/09/18 04:57:48;;;;;;;11.35;2.60;;;;;;;;;;10384456;22;20018;-75
2023/09/18 05:01:48;;;;;;;10.52;2.50;;;;;;;;;;10382837;22;20019;-75
2023/09/18 05:05:49;;;;;;;11.88;3.25;;;;;;;;;;10383488;22;19999;-75
2023/09/18 05:09:50;;;;;;;13.57;2.70;;;;;;;;;;10379801;22;20609;-75
2023/09/18 05:13:50;;;;;;;11.93;2.33;;;;;;;;;;10380328;22;20030;-75
2023/09/18 05:17:51;;;;;;;10.93;2.15;;;;;;;;;;10381422;22;20011;-75
2023/09/18 05:21:52;;;;;;;12.38;2.47;;;;;;;;;;10380653;22;20006;-75
2023/09/18 05:25:53;;;;;;;11.38;2.40;;;;;;;;;;10381115;22;20010;-75
2023/09/18 05:29:53;;;;;;;8.20;2.60;;;;;;;;;;10377466;22;20022;-76
2023/09/18 05:33:53;;;;;;;11.20;2.10;;;;;;;;;;10382912;22;20007;-76
2023/09/18 05:37:56;;;;;;;12.73;2.85;;;;;;;;;;10390440;22;19996;-76
2023/09/18 05:41:57;;;;;;;14.75;2.58;;;;;;;;;;10385961;22;19999;-76
2023/09/18 05:45:58;;;;;;;14.18;2.53;;;;;;;;;;10383663;22;20510;-76
2023/09/18 05:49:59;;;;;;;13.75;2.67;;;;;;;;;;10384459;22;20825;-75
2023/09/18 05:53:59;;;;;;;14.30;2.70;;;;;;;;;;10382234;22;20157;-76
2023/09/18 05:58:00;;;;;;;7.15;2.08;;;;;;;;;;10382093;22;20507;-76
2023/09/18 06:02:00;;;;;;;13.50;2.88;;;;;;;;;;10383239;22;20011;-76
2023/09/18 06:06:03;;;;;;;8.65;2.78;;;;;;;;;;10386781;22;20003;-76
2023/09/18 06:10:04;;;;;;;;;;;;;;;;;;10382411;22;20003;-75
2023/09/18 06:14:04;;;;;;;11.55;2.40;;;;;;;;;;10384618;22;20457;-76
2023/09/18 06:18:06;;;;;;;9.73;2.53;;;;;;;;;;10383765;22;20026;-76
2023/09/18 06:22:07;;;;;;;14.35;2.67;;;;;;;;;;10383964;22;20006;-76
2023/09/18 06:26:07;;;;;;;12.07;2.72;;;;;;;;;;10385128;22;20007;-76
2023/09/18 06:30:07;;;;;;;12.93;2.55;;;;;;;;;;10383014;22;20058;-76
2023/09/18 06:34:08;;;;;;;10.03;2.70;;;;;;;;;;10381559;22;19996;-76
2023/09/18 06:38:11;;;;;;;10.75;2.55;;;;;;;;;;10385765;22;20003;-76
2023/09/18 06:42:11;;;;;;;;;;;;;;;;;;10386295;22;20079;-76
2023/09/18 06:46:11;;;;;;;9.00;2.10;;;;;;;;;;10363140;22;19935;-76
2023/09/18 06:50:12;;;;;;;10.60;2.25;;;;;;;;;;10383732;22;20007;-76
2023/09/18 06:54:12;;;;;;;10.63;2.13;;;;;;;;;;10386706;22;19995;-76
2023/09/18 06:58:12;;;;;;;8.80;2.03;;;;;;;;;;10384765;22;19999;-76
2023/09/18 07:02:16;;;;;;;6.68;1.70;;;;;;;;;;10382412;22;20075;-76
2023/09/18 07:06:18;;;;;;;10.68;2.00;;;;;;;;;;10386034;22;20077;-76
2023/09/18 07:10:18;;;;;;;9.10;2.22;;;;;;;;;;10378654;22;20014;-77
2023/09/18 07:14:19;;;;;;;7.05;1.95;;;;;;;;;;10383679;22;20078;-76
2023/09/18 07:18:19;;;;;;;7.13;2.10;;;;;;;;;;10382410;22;20011;-76
2023/09/18 07:22:19;;;;;;;7.13;1.98;;;;;;;;;;10383387;22;20410;-76
2023/09/18 07:26:19;;;;;;;7.55;1.85;;;;;;;;;;10387090;22;20002;-76
2023/09/18 07:30:21;;;;;;;6.45;1.73;;;;;;;;;;10381043;22;20011;-76
2023/09/18 07:34:22;;;;;;;6.35;1.75;;;;;;;;;;10382335;22;19999;-76
2023/09/18 07:38:22;;;;;;;6.50;1.83;;;;;;;;;;10370408;22;20007;-76
2023/09/18 07:42:25;;;;;;;7.82;1.60;;;;;;;;;;10385530;22;20046;-76
2023/09/18 07:46:25;;;;;;;;;;;;;;;;;;10384155;22;20507;-76
2023/09/18 07:50:26;;;;;;;6.90;1.40;;;;;;;;;;10383984;22;19911;-76
2023/09/18 07:54:27;;;;;;;4.68;1.38;;;;;;;;;;10388638;22;19995;-75
2023/09/18 07:58:27;;;;;;;3.83;1.70;;;;;;;;;;10386238;22;19999;-75
2023/09/18 08:02:28;;;;;;;5.53;1.50;;;;;;;;;;10386084;22;20030;-76
2023/09/18 08:06:29;;;;;;;5.25;1.75;;;;;;;;;;10389029;22;20078;-76
2023/09/18 08:10:29;;;;;;;7.43;1.73;;;;;;;;;;10387698;22;20389;-75
2023/09/18 08:14:29;;;;;;;7.73;1.60;;;;;;;;;;10385678;22;20007;-76
2023/09/18 08:18:29;;;;;;;5.20;1.60;;;;;;;;;;10385162;22;20023;-75
2023/09/18 08:22:30;;;;;;;5.88;1.73;;;;;;;;;;10369170;22;20101;-75
2023/09/18 08:26:30;;;;;;;5.40;1.35;;;;;;;;;;10379751;22;20090;-76
2023/09/18 08:30:30;;;;;;;6.38;1.80;;;;;;;;;;10381041;22;20011;-76
2023/09/18 08:34:31;;;;;;;5.87;1.57;;;;;;;;;;10383038;22;20002;-76
2023/09/18 08:38:32;;;;;;;3.65;1.48;;;;;;;;;;10362598;22;20011;-76
2023/09/18 08:42:33;;;;;;;5.87;1.63;;;;;;;;;;10383436;22;20011;-76
2023/09/18 08:46:34;;;;;;;4.90;1.27;;;;;;;;;;10390086;22;20023;-76
2023/09/18 08:50:35;;;;;;;5.43;1.40;;;;;;;;;;10390618;22;20102;-76
2023/09/18 08:54:36;;;;;;;4.32;1.52;;;;;;;;;;10388209;22;20657;-76
2023/09/18 08:58:39;;;;;;;5.57;1.30;;;;;;;;;;10386020;22;20014;-76
2023/09/18 09:02:39;;;;;;;4.97;1.40;;;;;;;;;;10378213;22;20627;-76
2023/09/18 09:06:40;;;;;;;5.93;1.40;;;;;;;;;;10358652;22;20058;-76
2023/09/18 09:10:40;;;;;;;4.33;1.47;;;;;;;;;;10384620;22;20246;-76
2023/09/18 09:14:42;;;;;;;4.90;1.13;;;;;;;;;;10384416;22;20006;-76
2023/09/18 09:18:47;;;;;;;2.30;1.10;;;;;;;;;;10383311;22;20101;-76
2023/09/18 09:22:47;;;;;;;4.18;1.10;;;;;;;;;;10384789;22;20659;-77
2023/09/18 09:26:56;;;;;;;1.90;0.98;;;;;;;;;;10387364;22;19999;-76
2023/09/18 09:31:03;;;;;;;4.85;1.17;;;;;;;;;;10386524;22;20663;-76
2023/09/18 09:35:07;;;;;;;5.82;1.13;;;;;;;;;;10384892;22;20441;-76
2023/09/18 09:39:10;;;;;;;2.13;1.00;;;;;;;;;;10382819;22;20910;-75
2023/09/18 09:43:14;;;;;;;4.68;1.20;;;;;;;;;;10381259;22;20003;-76
2023/09/18 09:47:14;;;;;;;5.45;1.23;;;;;;;;;;10382743;22;20015;-76
2023/09/18 09:51:17;;;;;;;6.63;1.30;;;;;;;;;;10381928;22;20010;-75
2023/09/18 09:55:22;;;;;;;3.70;1.40;;;;;;;;;;10377018;22;19999;-76
2023/09/18 09:59:25;;;;;;;3.30;1.15;;;;;;;;;;10368613;22;20011;-76
2023/09/18 10:03:25;;;;;;;3.33;1.13;;;;;;;;;;10384862;22;20019;-76
2023/09/18 10:07:26;;;;;;;3.67;1.20;;;;;;;;;;10386365;22;20470;-76
2023/09/18 10:11:27;;;;;;;2.63;1.10;;;;;;;;;;10381050;22;20101;-75
2023/09/18 10:15:28;;;;;;;3.58;1.20;;;;;;;;;;10382240;22;20030;-76
2023/09/18 10:19:28;;;;;;;4.22;1.10;;;;;;;;;;10382274;22;20026;-76
2023/09/18 10:23:44;;;;;;;3.63;1.30;;;;;;;;;;10384732;22;20007;-76
2023/09/18 10:27:45;;;;;;;3.47;1.20;;;;;;;;;;10378892;22;20034;-76
2023/09/18 10:31:45;;;;;;;2.10;1.02;;;;;;;;;;10381093;22;20007;-76
2023/09/18 10:35:47;;;;;;;5.82;1.10;;;;;;;;;;10382224;22;20004;-76
2023/09/18 10:39:49;;;;;;;3.97;1.20;;;;;;;;;;10385012;22;20062;-76
2023/09/18 10:43:51;;;;;;;3.40;1.00;;;;;;;;;;10386799;22;20638;-76
2023/09/18 10:47:52;;;;;;;2.72;1.13;;;;;;;;;;10385825;22;20019;-76
2023/09/18 10:51:53;;;;;;;5.88;1.80;;;;;;;;;;10383001;22;20003;-77
2023/09/18 10:55:54;;;;;;;6.55;1.50;;;;;;;;;;10383346;22;20378;-76
2023/09/18 10:59:54;;;;;;;3.88;1.30;;;;;;;;;;10383596;22;20637;-76
2023/09/18 11:03:59;;;;;;;2.28;1.17;;;;;;;;;;10382810;22;20022;-76
2023/09/18 11:08:18;;;;;;;4.40;1.10;;;;;;;;;;10385341;22;20651;-76
2023/09/18 11:12:19;;;;;;;2.35;0.88;;;;;;;;;;10382244;22;20098;-76
2023/09/18 11:16:19;;;;;;;2.97;1.25;;;;;;;;;;10382487;22;20011;-77
2023/09/18 11:20:20;;;;;;;3.45;1.23;;;;;;;;;;10381724;22;20479;-76
2023/09/18 11:24:21;;;;;;;2.83;1.10;;;;;;;;;;10383144;22;20018;-76
2023/09/18 11:28:25;;;;;;;3.05;1.15;;;;;;;;;;10379233;22;20003;-77
2023/09/18 11:32:42;;;;;;;5.40;1.67;;;;;;;;;;10376938;22;20015;-76
2023/09/18 11:36:42;;;;;;;2.95;1.17;;;;;;;;;;10375593;22;20128;-76
2023/09/18 11:40:44;;;;;;;8.03;1.20;;;;;;;;;;10379513;22;20007;-76
2023/09/18 11:44:47;;;;;;;2.47;1.13;;;;;;;;;;10372780;22;20102;-76
2023/09/18 11:48:50;;;;;;;;;;;;;;;;;;10378573;22;20332;-76
2023/09/18 11:52:50;;;;;;;3.33;1.20;;;;;;;;;;10379688;22;19977;-77
2023/09/18 11:56:50;;;;;;;4.73;1.20;;;;;;;;;;10379269;22;20668;-71
2023/09/18 12:00:50;;;;;;;4.60;1.60;;;;;;;;;;10371838;22;20019;-70
2023/09/18 12:04:51;;;;;;;3.63;1.30;;;;;;;;;;10378004;22;20641;-71
2023/09/18 12:08:51;;;;;;;5.22;1.20;;;;;;;;;;10374203;22;20073;-70
2023/09/18 12:12:52;;;;;;;1.60;1.17;;;;;;;;;;10373653;22;20007;-70
2023/09/18 12:16:52;;;;;;;4.90;1.30;;;;;;;;;;10379398;22;20018;-70
2023/09/18 12:20:52;;;;;;;2.63;1.30;;;;;;;;;;10381111;22;20006;-71
2023/09/18 12:24:54;;;;;;;2.60;1.33;;;;;;;;;;10379796;22;20026;-70
2023/09/18 12:28:54;;;;;;;5.57;1.20;;;;;;;;;;10371628;22;20328;-71
2023/09/18 12:32:57;;;;;;;4.60;1.35;;;;;;;;;;10371086;22;20035;-71
2023/09/18 12:36:58;;;;;;;4.97;1.40;;;;;;;;;;10373671;22;20403;-70
2023/09/18 12:41:08;;;;;;;6.50;1.65;;;;;;;;;;10372658;22;20233;-72
2023/09/18 12:45:08;;;;;;;3.70;1.30;;;;;;;;;;10373739;22;20053;-72
2023/09/18 12:49:22;;;;;;;4.55;1.30;;;;;;;;;;10371967;22;20535;-71
2023/09/18 12:53:22;;;;;;;4.68;1.20;;;;;;;;;;10372446;22;20010;-71
2023/09/18 12:57:23;;;;;;;3.08;1.30;;;;;;;;;;10365672;22;20034;-70
2023/09/18 13:01:23;;;;;;;2.72;1.30;;;;;;;;;;10365222;22;20014;-71
2023/09/18 13:05:27;;;;;;;5.97;1.50;;;;;;;;;;10367406;22;19999;-71
2023/09/18 13:09:28;;;;;;;3.13;1.17;;;;;;;;;;10369880;22;20276;-71
2023/09/18 13:13:29;;;;;;;3.38;1.40;;;;;;;;;;10371220;22;20586;-71
2023/09/18 13:17:36;;;;;;;3.90;1.45;;;;;;;;;;10372549;22;20102;-71
2023/09/18 13:21:37;;;;;;;3.70;1.25;;;;;;;;;;10369535;22;20074;-71
2023/09/18 13:25:40;;;;;;;2.85;1.20;;;;;;;;;;10373287;22;20018;-70
2023/09/18 13:29:40;;;;;;;5.37;1.37;;;;;;;;;;10373225;22;20011;-70
2023/09/18 13:33:40;;;;;;;2.20;1.13;;;;;;;;;;10371998;22;20003;-71
2023/09/18 13:37:41;;;;;;;4.17;1.27;;;;;;;;;;10370448;22;20114;-71
2023/09/18 13:41:41;;;;;;;5.05;1.50;;;;;;;;;;10371663;22;20064;-70
2023/09/18 13:45:41;;;;;;;4.32;1.40;;;;;;;;;;10372365;22;20023;-70
2023/09/18 13:49:42;;;;;;;1.58;1.15;;;;;;;;;;10367653;22;20014;-70
2023/09/18 13:53:43;;;;;;;4.70;1.60;;;;;;;;;;10370835;22;20026;-70
2023/09/18 13:57:43;;;;;;;3.95;1.52;;;;;;;;;;10371961;22;20006;-71
2023/09/18 14:01:43;;;;;;;3.87;1.40;;;;;;;;;;10359227;22;20016;-70
2023/09/18 14:05:43;;;;;;;3.33;1.42;;;;;;;;;;10373500;22;20014;-70
2023/09/18 14:09:46;;;;;;;4.85;1.38;;;;;;;;;;10375024;22;20078;-70
2023/09/18 14:13:47;;;;;;;2.03;1.25;;;;;;;;;;10375050;22;19999;-70
2023/09/18 14:17:48;;;;;;;3.05;1.27;;;;;;;;;;10373498;22;20421;-70
2023/09/18 14:21:49;;;;;;;2.88;1.40;;;;;;;;;;10375667;22;20003;-70
2023/09/18 14:25:50;;;;;;;2.40;1.35;;;;;;;;;;10373338;22;20757;-70
2023/09/18 14:29:50;;;;;;;6.22;1.50;;;;;;;;;;10371825;22;20011;-70
2023/09/18 14:33:51;;;;;;;1.87;1.23;;;;;;;;;;10371703;22;20015;-70
2023/09/18 14:37:51;;;;;;;2.90;1.30;;;;;;;;;;10361525;22;20102;-70
2023/09/18 14:41:52;;;;;;;1.97;1.20;;;;;;;;;;10375299;22;20010;-69
2023/09/18 14:45:55;;;;;;;3.17;1.48;;;;;;;;;;10373879;22;20401;-70
2023/09/18 14:49:58;;;;;;;3.15;1.35;;;;;;;;;;10374061;22;20007;-70
2023/09/18 14:53:58;;;;;;;5.22;1.70;;;;;;;;;;10373279;22;20110;-71
2023/09/18 14:57:59;;;;;;;4.38;1.30;;;;;;;;;;10372436;22;20038;-71
2023/09/18 15:01:59;;;;;;;4.55;1.35;;;;;;;;;;10368634;22;20640;-70
2023/09/18 15:05:59;;;;;;;3.28;1.30;;;;;;;;;;10371266;22;20014;-70
2023/09/18 15:10:00;;;;;;;3.40;1.40;;;;;;;;;;10369084;22;20065;-70
2023/09/18 15:14:01;;;;;;;1.97;1.10;;;;;;;;;;10372331;22;20003;-70
2023/09/18 15:18:02;;;;;;;6.93;1.58;;;;;;;;;;10369825;22;20015;-69
2023/09/18 15:22:03;;;;;;;2.28;1.30;;;;;;;;;;10367189;22;20006;-70
2023/09/18 15:26:03;;;;;;;3.50;1.15;;;;;;;;;;10371988;22;20007;-70
2023/09/18 15:30:05;;;;;;;4.30;1.60;;;;;;;;;;10374737;22;20007;-71
2023/09/18 15:34:05;;;;;;;2.47;1.40;;;;;;;;;;10374252;22;19999;-70
2023/09/18 15:38:06;;;;;;;3.70;1.50;;;;;;;;;;10374530;22;20461;-70
2023/09/18 15:42:06;;;;;;;3.30;1.40;;;;;;;;;;10372739;22;20667;-71
2023/09/18 15:46:06;;;;;;;2.55;1.35;;;;;;;;;;10372566;22;20011;-70
2023/09/18 15:50:07;;;;;;;4.28;1.30;;;;;;;;;;10379106;22;20011;-71
2023/09/18 15:54:08;;;;;;;2.10;1.17;;;;;;;;;;10379517;22;20087;-71
2023/09/18 15:58:08;;;;;;;2.17;1.30;;;;;;;;;;10377631;22;19999;-71
2023/09/18 16:02:09;;;;;;;2.07;1.20;;;;;;;;;;10373892;22;20004;-70
2023/09/18 16:06:09;;;;;;;4.30;1.20;;;;;;;;;;10377919;22;19995;-70
2023/09/18 16:10:10;;;;;;;2.97;1.40;;;;;;;;;;10378439;22;20659;-70
2023/09/18 16:14:10;;;;;;;2.67;1.38;;;;;;;;;;10376171;22;19991;-70
2023/09/18 16:18:10;;;;;;;3.77;1.43;;;;;;;;;;10371453;22;20022;-70
2023/09/18 16:22:13;;;;;;;3.13;1.48;;;;;;;;;;10375523;22;20008;-70
2023/09/18 16:26:13;;;;;;;3.47;1.52;;;;;;;;;;10374912;22;20014;-70
2023/09/18 16:30:13;;;;;;;3.95;1.25;;;;;;;;;;10375095;22;20010;-70
2023/09/18 16:34:14;;;;;;;3.30;1.80;;;;;;;;;;10374667;22;20035;-75
2023/09/18 16:38:14;;;;;;;4.57;1.40;;;;;;;;;;10378291;22;20106;-76
2023/09/18 16:42:14;;;;;;;4.88;1.60;;;;;;;;;;10375739;22;20039;-71
2023/09/18 16:46:14;;;;;;;2.37;1.43;;;;;;;;;;10378281;22;20833;-71
2023/09/18 16:50:15;;;;;;;5.87;1.30;;;;;;;;;;10376008;22;20732;-71
2023/09/18 16:54:15;;;;;;;4.53;1.92;;;;;;;;;;10376684;22;19995;-70
2023/09/18 16:58:15;;;;;;;6.50;1.83;;;;;;;;;;10376840;22;20992;-71
2023/09/18 17:02:17;;;;;;;4.43;1.70;;;;;;;;;;10371887;22;20099;-71
2023/09/18 17:06:21;;;;;;;4.90;1.80;;;;;;;;;;10374507;22;20003;-71
2023/09/18 17:10:22;;;;;;;2.33;1.35;;;;;;;;;;10373963;22;19999;-70
2023/09/18 17:14:23;;;;;;;4.80;1.40;;;;;;;;;;10377882;22;20737;-71
2023/09/18 17:18:23;;;;;;;6.25;1.58;;;;;;;;;;10371501;22;20089;-71
2023/09/18 17:22:23;;;;;;;3.03;1.70;;;;;;;;;;10371791;22;20027;-71
2023/09/18 17:26:25;;;;;;;3.13;1.60;;;;;;;;;;10361902;22;20119;-71
2023/09/18 17:30:27;;;;;;;2.35;1.35;;;;;;;;;;10369767;22;20015;-71
2023/09/18 17:34:27;;;;;;;3.67;1.77;;;;;;;;;;10374418;22;20015;-72
2023/09/18 17:38:28;;;;;;;2.95;1.38;;;;;;;;;;10374353;22;20070;-71
2023/09/18 17:42:28;;;;;;;1.63;1.30;;;;;;;;;;10372723;22;20463;-71
2023/09/18 17:46:28;;;;;;;2.78;1.30;;;;;;;;;;10373351;22;20015;-71
2023/09/18 17:50:28;;;;;;;1.67;1.00;;;;;;;;;;10368208;22;20090;-71
2023/09/18 17:54:29;;;;;;;2.40;1.30;;;;;;;;;;10371238;22;20026;-71
2023/09/18 17:58:29;;;;;;;3.00;1.00;;;;;;;;;;10373446;22;20114;-71
2023/09/18 18:02:29;;;;;;;1.30;1.00;;;;;;;;;;10366786;22;20088;-71
2023/09/18 18:06:30;;;;;;;2.20;1.00;;;;;;;;;;10370240;22;20011;-71
2023/09/18 18:10:30;;;;;;;1.38;0.95;;;;;;;;;;10367648;22;20011;-71
2023/09/18 18:14:31;;;;;;;1.40;0.95;;;;;;;;;;10372741;22;20006;-71
2023/09/18 18:18:31;;;;;;;2.25;1.20;;;;;;;;;;10372083;22;20026;-72
2023/09/18 18:22:31;;;;;;;2.33;1.10;;;;;;;;;;10369906;22;20497;-73
2023/09/18 18:26:34;;;;;;;3.17;1.02;;;;;;;;;;10372496;22;19999;-73
2023/09/18 18:30:34;;;;;;;1.67;0.95;;;;;;;;;;10373059;22;20023;-73
2023/09/18 18:34:34;;;;;;;2.80;0.80;;;;;;;;;;10374297;22;20060;-73
2023/09/18 18:38:36;;;;;;;0.63;0.60;;;;;;;;;;10379558;22;20757;-73
2023/09/18 18:42:36;;;;;;;2.47;0.90;;;;;;;;;;10383180;22;20074;-73
2023/09/18 18:46:37;;;;;;;0.60;0.60;;;;;;;;;;10384557;22;20022;-73
2023/09/18 18:50:38;;;;;;;0.70;0.60;;;;;;;;;;10383552;22;20003;-73
2023/09/18 18:54:38;;;;;;;1.55;0.70;;;;;;;;;;10381932;22;20214;-73
2023/09/18 18:58:39;;;;;;;1.20;0.70;;;;;;;;;;10380448;22;20697;-73
2023/09/18 19:02:39;;;;;;;3.33;0.60;;;;;;;;;;10383498;22;20022;-73
2023/09/18 19:06:40;;;;;;;1.65;0.77;;;;;;;;;;10385383;22;20059;-72
2023/09/18 19:10:40;;;;;;;3.55;0.85;;;;;;;;;;10382962;22;20018;-73
2023/09/18 19:14:41;;;;;;;0.60;0.60;;;;;;;;;;10376250;22;20169;-73
2023/09/18 19:18:41;;;;;;;0.93;0.70;;;;;;;;;;10380032;22;20011;-72
2023/09/18 19:22:41;;;;;;;1.73;0.75;;;;;;;;;;10384051;22;20086;-73
2023/09/18 19:26:44;;;;;;;4.78;0.80;;;;;;;;;;10385223;22;20125;-72
2023/09/18 19:30:47;;;;;;;2.37;0.90;;;;;;;;;;10384489;22;20023;-72
2023/09/18 19:34:49;;;;;;;1.30;0.80;;;;;;;;;;10378111;22;20010;-73
2023/09/18 19:38:50;;;;;;;0.80;0.80;;;;;;;;;;10374122;22;20058;-72
2023/09/18 19:42:54;;;;;;;2.90;0.80;;;;;;;;;;10376855;22;20008;-73
2023/09/18 19:46:54;;;;;;;3.42;1.00;;;;;;;;;;10382391;22;20411;-72
2023/09/18 19:50:59;;;;;;;4.17;1.17;;;;;;;;;;10379756;22;20003;-72
2023/09/18 19:54:59;;;;;;;4.80;0.80;;;;;;;;;;10382113;22;20222;-72
2023/09/18 19:59:00;;;;;;;2.33;1.10;;;;;;;;;;10382167;22;20128;-72
2023/09/18 20:03:00;;;;;;;2.60;0.98;;;;;;;;;;10376578;22;20035;-72
2023/09/18 20:07:01;;;;;;;1.58;1.00;;;;;;;;;;10382076;22;20034;-72
2023/09/18 20:11:03;;;;;;;1.70;0.95;;;;;;;;;;10373878;22;20114;-72
2023/09/18 20:15:04;;;;;;;2.72;0.90;;;;;;;;;;10379858;22;19991;-72
2023/09/18 20:19:06;;;;;;;2.45;0.95;;;;;;;;;;10379407;22;20000;-72
2023/09/18 20:23:06;;;;;;;1.17;0.98;;;;;;;;;;10378042;22;20007;-71
2023/09/18 20:27:09;;;;;;;1.93;0.93;;;;;;;;;;10379941;22;20118;-72
2023/09/18 20:31:10;;;;;;;3.03;0.80;;;;;;;;;;10381514;22;20307;-72
2023/09/18 20:35:10;;;;;;;1.77;1.00;;;;;;;;;;10382824;22;20237;-71
2023/09/18 20:39:11;;;;;;;2.47;1.00;;;;;;;;;;10382850;22;20222;-72
2023/09/18 20:43:11;;;;;;;2.50;1.15;;;;;;;;;;10381110;22;20049;-71
2023/09/18 20:47:11;;;;;;;2.47;1.08;;;;;;;;;;10381654;22;20011;-71
2023/09/18 20:51:11;;;;;;;1.90;1.00;;;;;;;;;;10381351;22;20026;-71
2023/09/18 20:55:12;;;;;;;2.10;0.93;;;;;;;;;;10379285;22;20373;-71
2023/09/18 20:59:13;;;;;;;1.63;0.98;;;;;;;;;;10382724;22;20003;-71
2023/09/18 21:03:14;;;;;;;3.67;1.20;;;;;;;;;;10379155;22;20038;-71
2023/09/18 21:07:15;;;;;;;1.42;1.00;;;;;;;;;;10381496;22;20045;-71
2023/09/18 21:11:15;;;;;;;2.43;1.20;;;;;;;;;;10378887;22;20023;-71
2023/09/18 21:15:15;;;;;;;2.25;1.20;;;;;;;;;;10381014;22;20058;-71
2023/09/18 21:19:15;;;;;;;3.75;1.17;;;;;;;;;;10375294;22;20617;-71
2023/09/18 21:23:15;;;;;;;1.73;0.95;;;;;;;;;;10381520;22;20046;-71
2023/09/18 21:27:16;;;;;;;2.72;1.00;;;;;;;;;;10374981;22;20028;-71
2023/09/18 21:31:20;;;;;;;1.92;1.13;;;;;;;;;;10365078;22;20085;-71
2023/09/18 21:35:21;;;;;;;1.50;1.08;;;;;;;;;;10370557;22;20551;-72
2023/09/18 21:39:21;;;;;;;2.63;1.00;;;;;;;;;;10367599;22;20701;-71
2023/09/18 21:43:21;;;;;;;1.85;1.08;;;;;;;;;;10369897;22;19999;-72
2023/09/18 21:47:21;;;;;;;4.38;1.20;;;;;;;;;;10367351;22;20007;-71
2023/09/18 21:51:22;;;;;;;1.27;0.90;;;;;;;;;;10366787;22;20030;-72
2023/09/18 21:55:22;;;;;;;1.75;1.02;;;;;;;;;;10368000;22;19995;-71
2023/09/18 21:59:23;;;;;;;1.77;1.00;;;;;;;;;;10369225;22;20073;-71
2023/09/18 22:03:23;;;;;;;1.23;1.00;;;;;;;;;;10366536;22;20034;-71
2023/09/18 22:07:23;;;;;;;2.38;1.10;;;;;;;;;;10367626;22;19999;-71
2023/09/18 22:11:23;;;;;;;3.30;1.13;;;;;;;;;;10365631;22;20017;-71
2023/09/18 22:15:24;;;;;;;3.72;1.52;;;;;;;;;;10368297;22;20070;-71
2023/09/18 22:19:24;;;;;;;2.50;1.13;;;;;;;;;;10365907;22;20794;-71
2023/09/18 22:23:28;;;;;;;2.58;1.20;;;;;;;;;;10369080;22;20043;-71
2023/09/18 22:27:28;;;;;;;;;;;;;;;;;;10364121;22;20026;-71
2023/09/18 22:31:28;;;;;;;3.63;1.17;;;;;;;;;;10366740;22;19922;-71
2023/09/18 22:35:30;;;;;;;1.70;1.45;;;;;;;;;;10367495;22;19999;-71
2023/09/18 22:39:51;;;;;;;3.17;1.60;;;;;;;;;;10366960;22;20022;-72
2023/09/18 22:44:11;;;;;;;3.63;1.50;;;;;;;;;;10365299;22;20003;-71
2023/09/18 22:48:30;;;;;;;2.55;1.20;;;;;;;;;;10364551;22;20603;-71
2023/09/18 22:52:46;;;;;;;1.75;1.20;;;;;;;;;;10366861;22;20591;-71
2023/09/18 22:56:46;;;;;;;1.88;1.40;;;;;;;;;;10365298;22;20010;-71
2023/09/18 23:00:48;;;;;;;2.47;1.30;;;;;;;;;;10366744;22;20030;-71
2023/09/18 23:04:48;;;;;;;3.97;1.10;;;;;;;;;;10365263;22;20112;-72
2023/09/18 23:08:48;;;;;;;3.05;1.40;;;;;;;;;;10366782;22;20007;-71
2023/09/18 23:12:49;;;;;;;1.70;1.30;;;;;;;;;;10362081;22;20013;-72
2023/09/18 23:16:49;;;;;;;2.63;1.42;;;;;;;;;;10365854;22;20017;-71
2023/09/18 23:20:50;;;;;;;3.47;1.60;;;;;;;;;;10366687;22;20065;-71
2023/09/18 23:24:52;;;;;;;3.58;1.83;;;;;;;;;;10363984;22;20860;-71
2023/09/18 23:28:52;;;;;;;1.73;1.35;;;;;;;;;;10364805;22;19999;-71
2023/09/18 23:32:54;;;;;;;3.83;1.52;;;;;;;;;;10362275;22;20659;-72
2023/09/18 23:36:55;;;;;;;3.78;1.67;;;;;;;;;;10369494;22;19999;-71
2023/09/18 23:40:57;;;;;;;3.80;1.70;;;;;;;;;;10360181;22;20017;-71